RYR3PY LMML-LIMC
Flight info
| Callsign | RYR3PY |
|---|---|
| Flight time | 1h 47m |
| Altitude | 36000 |
| Route | GZO M622 SOPIR DCT MABOX DCT ADEXI DCT GIANO DCT TINTO DCT VELAD DCT ELB DCT UPDIN DCT SPEZI DCT IDONA DCT MEBUR |
| Aircraft | B738/M-SDE2E3FGHIRWXY/LB1 |
Departure
| Time | 2026-05-03 21:09 |
|---|---|
| Airport | Malta International Airport (LMML) |
Arrival
| Time | 2026-05-03 22:56 |
|---|---|
| Airport | Milan Malpensa International Airport (LIMC) |
| Time | Latitude | Longitude | Altitude | Speed | Heading |
|---|---|---|---|---|---|
| 2026-05-03 20:39 | 35.84809 | 14.49514 | 258 ft | 0 kts | 359° |
| 2026-05-03 21:01 | 35.84798 | 14.49514 | 258 ft | 4 kts | 359° |
| 2026-05-03 21:01 | 35.84771 | 14.49515 | 258 ft | 4 kts | 359° |
| 2026-05-03 21:01 | 35.84746 | 14.49515 | 258 ft | 2 kts | 360° |
| 2026-05-03 21:02 | 35.84745 | 14.49515 | 258 ft | 1 kts | 360° |
| 2026-05-03 21:05 | 35.84748 | 14.49521 | 258 ft | 1 kts | 59° |
| 2026-05-03 21:05 | 35.84736 | 14.49531 | 258 ft | 3 kts | 151° |
| 2026-05-03 21:05 | 35.84692 | 14.49561 | 258 ft | 10 kts | 152° |
| 2026-05-03 21:06 | 35.84626 | 14.49573 | 258 ft | 9 kts | 205° |
| 2026-05-03 21:06 | 35.84571 | 14.49534 | 258 ft | 9 kts | 187° |
| 2026-05-03 21:06 | 35.84519 | 14.49571 | 258 ft | 9 kts | 140° |
| 2026-05-03 21:06 | 35.84467 | 14.49615 | 257 ft | 10 kts | 151° |
| 2026-05-03 21:07 | 35.84391 | 14.49649 | 256 ft | 12 kts | 164° |
| 2026-05-03 21:07 | 35.84309 | 14.49676 | 256 ft | 12 kts | 164° |
| 2026-05-03 21:07 | 35.84239 | 14.49705 | 255 ft | 8 kts | 159° |
| 2026-05-03 21:07 | 35.84191 | 14.49700 | 255 ft | 7 kts | 241° |
| 2026-05-03 21:08 | 35.84217 | 14.49644 | 255 ft | 12 kts | 316° |
| 2026-05-03 21:08 | 35.84393 | 14.49426 | 258 ft | 71 kts | 314° |
| 2026-05-03 21:08 | 35.84913 | 14.48781 | 258 ft | 138 kts | 314° |
| 2026-05-03 21:08 | 35.85692 | 14.47793 | 514 ft | 171 kts | 313° |
| 2026-05-03 21:09 | 35.86500 | 14.46746 | 1373 ft | 169 kts | 307° |
| 2026-05-03 21:09 | 35.87183 | 14.45587 | 2281 ft | 167 kts | 304° |
| 2026-05-03 21:09 | 35.87946 | 14.44428 | 2862 ft | 188 kts | 310° |
| 2026-05-03 21:09 | 35.88868 | 14.43110 | 3149 ft | 216 kts | 308° |
| 2026-05-03 21:10 | 35.89827 | 14.41617 | 3453 ft | 237 kts | 308° |
| 2026-05-03 21:10 | 35.90905 | 14.39923 | 3724 ft | 261 kts | 308° |
| 2026-05-03 21:10 | 35.92050 | 14.38132 | 4372 ft | 272 kts | 309° |
| 2026-05-03 21:10 | 35.93234 | 14.36299 | 5258 ft | 277 kts | 309° |
| 2026-05-03 21:11 | 35.94458 | 14.34450 | 6198 ft | 278 kts | 310° |
| 2026-05-03 21:11 | 35.95675 | 14.32618 | 7184 ft | 275 kts | 309° |
| 2026-05-03 21:11 | 35.96895 | 14.30783 | 8095 ft | 277 kts | 309° |
| 2026-05-03 21:11 | 35.98124 | 14.28931 | 8988 ft | 278 kts | 309° |
| 2026-05-03 21:12 | 35.99359 | 14.27067 | 9864 ft | 281 kts | 309° |
| 2026-05-03 21:12 | 36.00611 | 14.25176 | 10578 ft | 289 kts | 309° |
| 2026-05-03 21:12 | 36.01936 | 14.23173 | 10802 ft | 314 kts | 309° |
| 2026-05-03 21:12 | 36.03373 | 14.21011 | 11086 ft | 334 kts | 311° |
| 2026-05-03 21:13 | 36.05088 | 14.19080 | 11643 ft | 343 kts | 323° |
| 2026-05-03 21:13 | 36.07040 | 14.17357 | 12424 ft | 345 kts | 324° |
| 2026-05-03 21:13 | 36.09018 | 14.15665 | 13247 ft | 347 kts | 325° |
| 2026-05-03 21:13 | 36.11009 | 14.13962 | 14040 ft | 349 kts | 324° |
| 2026-05-03 21:14 | 36.13009 | 14.12236 | 14726 ft | 352 kts | 324° |
| 2026-05-03 21:14 | 36.15020 | 14.10484 | 15434 ft | 354 kts | 324° |
| 2026-05-03 21:14 | 36.17039 | 14.08714 | 16151 ft | 356 kts | 324° |
| 2026-05-03 21:14 | 36.19060 | 14.06933 | 16854 ft | 358 kts | 324° |
| 2026-05-03 21:15 | 36.21094 | 14.05135 | 17551 ft | 360 kts | 324° |
| 2026-05-03 21:15 | 36.23140 | 14.03322 | 18234 ft | 362 kts | 323° |
| 2026-05-03 21:15 | 36.25200 | 14.01496 | 18859 ft | 365 kts | 323° |
| 2026-05-03 21:15 | 36.27243 | 13.99683 | 19415 ft | 368 kts | 323° |
| 2026-05-03 21:16 | 36.29336 | 13.97823 | 19976 ft | 370 kts | 323° |
| 2026-05-03 21:16 | 36.31440 | 13.95953 | 20546 ft | 373 kts | 323° |
| 2026-05-03 21:16 | 36.33554 | 13.94073 | 21099 ft | 375 kts | 323° |
| 2026-05-03 21:16 | 36.35683 | 13.92178 | 21641 ft | 378 kts | 323° |
| 2026-05-03 21:17 | 36.37833 | 13.90263 | 22173 ft | 381 kts | 323° |
| 2026-05-03 21:17 | 36.39266 | 13.88987 | 22514 ft | 383 kts | 323° |
| 2026-05-03 21:17 | 36.42179 | 13.86388 | 23192 ft | 387 kts | 323° |
| 2026-05-03 21:17 | 36.44338 | 13.84461 | 23694 ft | 389 kts | 322° |
| 2026-05-03 21:18 | 36.46470 | 13.82557 | 24096 ft | 392 kts | 322° |
| 2026-05-03 21:18 | 36.48663 | 13.80598 | 24497 ft | 394 kts | 322° |
| 2026-05-03 21:18 | 36.50749 | 13.78732 | 24869 ft | 397 kts | 322° |
| 2026-05-03 21:18 | 36.53053 | 13.76667 | 25288 ft | 399 kts | 322° |
| 2026-05-03 21:19 | 36.55321 | 13.74631 | 25683 ft | 402 kts | 322° |
| 2026-05-03 21:19 | 36.57598 | 13.72586 | 26070 ft | 404 kts | 322° |
| 2026-05-03 21:19 | 36.59893 | 13.70522 | 26443 ft | 407 kts | 322° |
| 2026-05-03 21:19 | 36.62191 | 13.68453 | 26808 ft | 409 kts | 322° |
| 2026-05-03 21:20 | 36.64481 | 13.66391 | 27171 ft | 411 kts | 322° |
| 2026-05-03 21:20 | 36.66808 | 13.64295 | 27527 ft | 414 kts | 322° |
| 2026-05-03 21:20 | 36.69146 | 13.62186 | 27879 ft | 416 kts | 322° |
| 2026-05-03 21:20 | 36.71500 | 13.60062 | 28223 ft | 418 kts | 322° |
| 2026-05-03 21:21 | 36.73862 | 13.57928 | 28563 ft | 421 kts | 322° |
| 2026-05-03 21:21 | 36.76244 | 13.55775 | 28890 ft | 423 kts | 322° |
| 2026-05-03 21:21 | 36.78636 | 13.53611 | 29220 ft | 425 kts | 322° |
| 2026-05-03 21:21 | 36.81042 | 13.51433 | 29556 ft | 427 kts | 322° |
| 2026-05-03 21:22 | 36.83453 | 13.49248 | 29992 ft | 426 kts | 322° |
| 2026-05-03 21:22 | 36.85843 | 13.47082 | 30477 ft | 423 kts | 322° |
| 2026-05-03 21:22 | 36.88191 | 13.44952 | 30888 ft | 421 kts | 322° |
| 2026-05-03 21:22 | 36.90565 | 13.42797 | 31267 ft | 420 kts | 322° |
| 2026-05-03 21:23 | 36.92929 | 13.40647 | 31622 ft | 420 kts | 322° |
| 2026-05-03 21:23 | 36.95297 | 13.38493 | 31996 ft | 419 kts | 322° |
| 2026-05-03 21:23 | 36.97655 | 13.36347 | 32377 ft | 417 kts | 322° |
| 2026-05-03 21:23 | 37.00005 | 13.34206 | 32729 ft | 417 kts | 322° |
| 2026-05-03 21:24 | 37.02345 | 13.32072 | 33085 ft | 416 kts | 321° |
| 2026-05-03 21:24 | 37.04681 | 13.29939 | 33435 ft | 415 kts | 321° |
| 2026-05-03 21:24 | 37.06955 | 13.27863 | 33762 ft | 414 kts | 321° |
| 2026-05-03 21:24 | 37.09286 | 13.25732 | 34087 ft | 414 kts | 321° |
| 2026-05-03 21:25 | 37.11580 | 13.23633 | 34401 ft | 412 kts | 321° |
| 2026-05-03 21:25 | 37.13899 | 13.21511 | 34689 ft | 412 kts | 321° |
| 2026-05-03 21:25 | 37.16212 | 13.19393 | 34961 ft | 411 kts | 321° |
| 2026-05-03 21:25 | 37.18359 | 13.17425 | 35199 ft | 411 kts | 321° |
| 2026-05-03 21:26 | 37.20667 | 13.15310 | 35471 ft | 410 kts | 321° |
| 2026-05-03 21:26 | 37.22969 | 13.13199 | 35757 ft | 409 kts | 321° |
| 2026-05-03 21:26 | 37.25239 | 13.11115 | 36022 ft | 408 kts | 321° |
| 2026-05-03 21:26 | 37.27538 | 13.09001 | 36212 ft | 409 kts | 321° |
| 2026-05-03 21:27 | 37.32163 | 13.04749 | 36201 ft | 413 kts | 322° |
| 2026-05-03 21:27 | 37.37232 | 13.01428 | 36198 ft | 415 kts | 339° |
| 2026-05-03 21:28 | 37.42783 | 12.99368 | 36207 ft | 415 kts | 340° |
| 2026-05-03 21:28 | 37.48331 | 12.97364 | 36206 ft | 414 kts | 340° |
| 2026-05-03 21:29 | 37.53861 | 12.95334 | 36208 ft | 414 kts | 340° |
| 2026-05-03 21:29 | 37.59360 | 12.93291 | 36209 ft | 414 kts | 340° |
| 2026-05-03 21:30 | 37.64902 | 12.91220 | 36212 ft | 415 kts | 340° |
| 2026-05-03 21:30 | 37.70467 | 12.89137 | 36204 ft | 417 kts | 340° |
| 2026-05-03 21:31 | 37.76037 | 12.87049 | 36205 ft | 418 kts | 340° |
| 2026-05-03 21:31 | 37.81598 | 12.84961 | 36197 ft | 419 kts | 340° |
| 2026-05-03 21:32 | 37.87216 | 12.82850 | 36194 ft | 420 kts | 340° |
| 2026-05-03 21:32 | 37.92451 | 12.80879 | 36191 ft | 421 kts | 340° |
| 2026-05-03 21:33 | 37.98032 | 12.78774 | 36191 ft | 421 kts | 340° |
| 2026-05-03 21:33 | 38.03667 | 12.76646 | 36190 ft | 421 kts | 340° |
| 2026-05-03 21:34 | 38.09288 | 12.74520 | 36192 ft | 421 kts | 340° |
| 2026-05-03 21:34 | 38.14921 | 12.72385 | 36185 ft | 421 kts | 340° |
| 2026-05-03 21:35 | 38.20510 | 12.70264 | 36186 ft | 421 kts | 340° |
| 2026-05-03 21:35 | 38.26121 | 12.68131 | 36182 ft | 420 kts | 340° |
| 2026-05-03 21:36 | 38.31726 | 12.65997 | 36183 ft | 419 kts | 340° |
| 2026-05-03 21:36 | 38.37315 | 12.63866 | 36181 ft | 419 kts | 340° |
| 2026-05-03 21:37 | 38.42900 | 12.61732 | 36182 ft | 418 kts | 340° |
| 2026-05-03 21:37 | 38.48443 | 12.59611 | 36182 ft | 418 kts | 340° |
| 2026-05-03 21:38 | 38.54018 | 12.57475 | 36178 ft | 418 kts | 340° |
| 2026-05-03 21:38 | 38.59595 | 12.55333 | 36187 ft | 418 kts | 340° |
| 2026-05-03 21:39 | 38.64228 | 12.53552 | 36194 ft | 418 kts | 340° |
| 2026-05-03 21:39 | 38.70721 | 12.51052 | 36184 ft | 418 kts | 340° |
| 2026-05-03 21:40 | 38.75396 | 12.49249 | 36193 ft | 419 kts | 340° |
| 2026-05-03 21:40 | 38.80961 | 12.47099 | 36182 ft | 419 kts | 340° |
| 2026-05-03 21:41 | 38.86550 | 12.44933 | 36189 ft | 419 kts | 339° |
| 2026-05-03 21:41 | 38.92003 | 12.42348 | 36192 ft | 417 kts | 335° |
| 2026-05-03 21:42 | 38.97357 | 12.39564 | 36189 ft | 417 kts | 335° |
| 2026-05-03 21:42 | 39.02751 | 12.36762 | 36186 ft | 417 kts | 335° |
| 2026-05-03 21:43 | 39.08155 | 12.33983 | 36189 ft | 418 kts | 335° |
| 2026-05-03 21:43 | 39.13530 | 12.31230 | 36185 ft | 418 kts | 335° |
| 2026-05-03 21:44 | 39.18945 | 12.28457 | 36181 ft | 418 kts | 335° |
| 2026-05-03 21:44 | 39.24363 | 12.25679 | 36183 ft | 418 kts | 335° |
| 2026-05-03 21:45 | 39.29741 | 12.22916 | 36188 ft | 418 kts | 335° |
| 2026-05-03 21:45 | 39.35141 | 12.20136 | 36185 ft | 418 kts | 335° |
| 2026-05-03 21:46 | 39.40552 | 12.17347 | 36187 ft | 418 kts | 335° |
| 2026-05-03 21:46 | 39.45960 | 12.14554 | 36185 ft | 418 kts | 335° |
| 2026-05-03 21:47 | 39.51331 | 12.11775 | 36185 ft | 418 kts | 335° |
| 2026-05-03 21:47 | 39.56744 | 12.08971 | 36182 ft | 417 kts | 335° |
| 2026-05-03 21:48 | 39.62108 | 12.06187 | 36178 ft | 417 kts | 335° |
| 2026-05-03 21:48 | 39.67499 | 12.03384 | 36179 ft | 417 kts | 335° |
| 2026-05-03 21:49 | 39.72887 | 12.00578 | 36181 ft | 417 kts | 335° |
| 2026-05-03 21:49 | 39.78273 | 11.97768 | 36179 ft | 417 kts | 335° |
| 2026-05-03 21:50 | 39.83660 | 11.94953 | 36180 ft | 417 kts | 335° |
| 2026-05-03 21:50 | 39.89040 | 11.92137 | 36177 ft | 417 kts | 335° |
| 2026-05-03 21:51 | 39.94426 | 11.89313 | 36177 ft | 417 kts | 335° |
| 2026-05-03 21:51 | 39.99819 | 11.86480 | 36176 ft | 417 kts | 335° |
| 2026-05-03 21:52 | 40.05184 | 11.83657 | 36178 ft | 418 kts | 335° |
| 2026-05-03 21:52 | 40.10587 | 11.80810 | 36176 ft | 418 kts | 335° |
| 2026-05-03 21:53 | 40.15990 | 11.77958 | 36172 ft | 419 kts | 335° |
| 2026-05-03 21:53 | 40.21402 | 11.75095 | 36172 ft | 420 kts | 335° |
| 2026-05-03 21:54 | 40.26825 | 11.72223 | 36174 ft | 420 kts | 335° |
| 2026-05-03 21:54 | 40.32259 | 11.69339 | 36173 ft | 421 kts | 335° |
| 2026-05-03 21:55 | 40.37659 | 11.66468 | 36169 ft | 421 kts | 335° |
| 2026-05-03 21:55 | 40.43102 | 11.63570 | 36171 ft | 421 kts | 335° |
| 2026-05-03 21:56 | 40.48511 | 11.60685 | 36169 ft | 421 kts | 335° |
| 2026-05-03 21:56 | 40.53957 | 11.57775 | 36170 ft | 421 kts | 335° |
| 2026-05-03 21:57 | 40.59397 | 11.54862 | 36174 ft | 422 kts | 335° |
| 2026-05-03 21:57 | 40.64802 | 11.51964 | 36171 ft | 422 kts | 335° |
| 2026-05-03 21:58 | 40.70246 | 11.49039 | 36167 ft | 422 kts | 335° |
| 2026-05-03 21:58 | 40.75688 | 11.46110 | 36166 ft | 422 kts | 334° |
| 2026-05-03 21:59 | 40.81133 | 11.43175 | 36174 ft | 422 kts | 334° |
| 2026-05-03 21:59 | 40.86546 | 11.40252 | 36169 ft | 422 kts | 334° |
| 2026-05-03 22:00 | 40.91992 | 11.37305 | 36176 ft | 422 kts | 334° |
| 2026-05-03 22:00 | 40.97433 | 11.34356 | 36165 ft | 422 kts | 334° |
| 2026-05-03 22:01 | 41.02881 | 11.31398 | 36162 ft | 422 kts | 334° |
| 2026-05-03 22:01 | 41.08282 | 11.28460 | 36163 ft | 422 kts | 334° |
| 2026-05-03 22:02 | 41.13737 | 11.25487 | 36175 ft | 422 kts | 334° |
| 2026-05-03 22:02 | 41.19172 | 11.22520 | 36178 ft | 422 kts | 334° |
| 2026-05-03 22:03 | 41.24577 | 11.19564 | 36167 ft | 422 kts | 334° |
| 2026-05-03 22:03 | 41.30024 | 11.16578 | 36169 ft | 422 kts | 334° |
| 2026-05-03 22:04 | 41.35438 | 11.13607 | 36166 ft | 422 kts | 334° |
| 2026-05-03 22:04 | 41.40881 | 11.10614 | 36170 ft | 422 kts | 334° |
| 2026-05-03 22:05 | 41.46321 | 11.07618 | 36164 ft | 422 kts | 334° |
| 2026-05-03 22:05 | 41.51741 | 11.04691 | 36168 ft | 422 kts | 335° |
| 2026-05-03 22:06 | 41.57232 | 11.01824 | 36166 ft | 423 kts | 335° |
| 2026-05-03 22:06 | 41.62713 | 10.98956 | 36165 ft | 422 kts | 335° |
| 2026-05-03 22:07 | 41.68154 | 10.96091 | 36164 ft | 422 kts | 335° |
| 2026-05-03 22:07 | 41.73609 | 10.93208 | 36165 ft | 422 kts | 335° |
| 2026-05-03 22:08 | 41.79072 | 10.90314 | 36163 ft | 422 kts | 335° |
| 2026-05-03 22:08 | 41.84596 | 10.87383 | 36164 ft | 421 kts | 335° |
| 2026-05-03 22:09 | 41.90053 | 10.84482 | 36158 ft | 421 kts | 335° |
| 2026-05-03 22:10 | 41.98224 | 10.80128 | 36160 ft | 420 kts | 335° |
| 2026-05-03 22:10 | 42.03633 | 10.77240 | 36161 ft | 420 kts | 335° |
| 2026-05-03 22:11 | 42.09086 | 10.74321 | 36165 ft | 420 kts | 335° |
| 2026-05-03 22:11 | 42.14477 | 10.71427 | 36164 ft | 419 kts | 335° |
| 2026-05-03 22:12 | 42.19909 | 10.68505 | 36162 ft | 419 kts | 335° |
| 2026-05-03 22:12 | 42.25338 | 10.65579 | 36160 ft | 419 kts | 335° |
| 2026-05-03 22:13 | 42.30733 | 10.62667 | 36158 ft | 419 kts | 335° |
| 2026-05-03 22:13 | 42.36144 | 10.59740 | 36160 ft | 419 kts | 335° |
| 2026-05-03 22:14 | 42.41553 | 10.56808 | 36157 ft | 419 kts | 335° |
| 2026-05-03 22:14 | 42.46971 | 10.53867 | 36160 ft | 419 kts | 335° |
| 2026-05-03 22:15 | 42.52387 | 10.50921 | 36156 ft | 419 kts | 334° |
| 2026-05-03 22:15 | 42.57764 | 10.47990 | 36161 ft | 419 kts | 335° |
| 2026-05-03 22:16 | 42.63182 | 10.45032 | 36162 ft | 419 kts | 334° |
| 2026-05-03 22:16 | 42.68604 | 10.42066 | 36162 ft | 419 kts | 334° |
| 2026-05-03 22:17 | 42.73958 | 10.39048 | 36154 ft | 417 kts | 330° |
| 2026-05-03 22:17 | 42.79060 | 10.35289 | 36162 ft | 415 kts | 327° |
| 2026-05-03 22:18 | 42.84044 | 10.31434 | 36187 ft | 398 kts | 327° |
| 2026-05-03 22:18 | 42.85617 | 10.30226 | 36148 ft | 387 kts | 327° |
| 2026-05-03 22:18 | 42.88702 | 10.27870 | 36105 ft | 386 kts | 327° |
| 2026-05-03 22:19 | 42.92646 | 10.24865 | 36154 ft | 394 kts | 327° |
| 2026-05-03 22:19 | 42.97512 | 10.21167 | 36166 ft | 406 kts | 328° |
| 2026-05-03 22:20 | 43.02514 | 10.17368 | 36165 ft | 416 kts | 328° |
| 2026-05-03 22:20 | 43.07536 | 10.13554 | 36138 ft | 408 kts | 328° |
| 2026-05-03 22:21 | 43.12471 | 10.09797 | 36048 ft | 404 kts | 328° |
| 2026-05-03 22:21 | 43.14933 | 10.07918 | 35765 ft | 401 kts | 328° |
| 2026-05-03 22:21 | 43.17358 | 10.06067 | 35375 ft | 397 kts | 328° |
| 2026-05-03 22:21 | 43.19760 | 10.04230 | 35014 ft | 393 kts | 328° |
| 2026-05-03 22:22 | 43.22138 | 10.02410 | 34639 ft | 390 kts | 328° |
| 2026-05-03 22:22 | 43.24508 | 10.00594 | 34265 ft | 387 kts | 328° |
| 2026-05-03 22:22 | 43.26827 | 9.98816 | 33857 ft | 385 kts | 328° |
| 2026-05-03 22:22 | 43.29158 | 9.97026 | 33453 ft | 382 kts | 328° |
| 2026-05-03 22:23 | 43.31472 | 9.95248 | 33067 ft | 379 kts | 328° |
| 2026-05-03 22:23 | 43.33769 | 9.93483 | 32696 ft | 376 kts | 328° |
| 2026-05-03 22:23 | 43.36031 | 9.91743 | 32338 ft | 374 kts | 328° |
| 2026-05-03 22:23 | 43.38293 | 9.90002 | 31973 ft | 371 kts | 328° |
| 2026-05-03 22:24 | 43.40547 | 9.88265 | 31594 ft | 369 kts | 328° |
| 2026-05-03 22:24 | 43.42783 | 9.86542 | 31228 ft | 367 kts | 327° |
| 2026-05-03 22:24 | 43.45002 | 9.84831 | 30872 ft | 365 kts | 328° |
| 2026-05-03 22:24 | 43.47213 | 9.83123 | 30531 ft | 363 kts | 328° |
| 2026-05-03 22:25 | 43.49411 | 9.81424 | 30164 ft | 361 kts | 327° |
| 2026-05-03 22:25 | 43.51570 | 9.79754 | 29767 ft | 359 kts | 327° |
| 2026-05-03 22:25 | 43.53750 | 9.78066 | 29379 ft | 356 kts | 328° |
| 2026-05-03 22:25 | 43.55897 | 9.76402 | 29031 ft | 352 kts | 328° |
| 2026-05-03 22:26 | 43.58027 | 9.74751 | 28652 ft | 350 kts | 328° |
| 2026-05-03 22:26 | 43.60141 | 9.73110 | 28295 ft | 347 kts | 328° |
| 2026-05-03 22:26 | 43.62240 | 9.71479 | 27936 ft | 344 kts | 328° |
| 2026-05-03 22:26 | 43.64319 | 9.69862 | 27594 ft | 342 kts | 328° |
| 2026-05-03 22:27 | 43.66385 | 9.68254 | 27240 ft | 339 kts | 328° |
| 2026-05-03 22:27 | 43.68436 | 9.66656 | 26902 ft | 337 kts | 328° |
| 2026-05-03 22:27 | 43.70450 | 9.65085 | 26561 ft | 335 kts | 328° |
| 2026-05-03 22:27 | 43.72479 | 9.63503 | 26225 ft | 333 kts | 328° |
| 2026-05-03 22:28 | 43.74497 | 9.61928 | 25885 ft | 332 kts | 328° |
| 2026-05-03 22:28 | 43.76508 | 9.60357 | 25551 ft | 330 kts | 328° |
| 2026-05-03 22:28 | 43.78480 | 9.58815 | 25149 ft | 332 kts | 328° |
| 2026-05-03 22:28 | 43.80493 | 9.57240 | 24713 ft | 336 kts | 328° |
| 2026-05-03 22:29 | 43.82534 | 9.55642 | 24331 ft | 339 kts | 328° |
| 2026-05-03 22:29 | 43.84605 | 9.54019 | 23983 ft | 343 kts | 328° |
| 2026-05-03 22:29 | 43.86699 | 9.52377 | 23603 ft | 345 kts | 328° |
| 2026-05-03 22:29 | 43.88786 | 9.50741 | 23205 ft | 343 kts | 328° |
| 2026-05-03 22:30 | 43.90854 | 9.49118 | 22832 ft | 341 kts | 328° |
| 2026-05-03 22:30 | 43.92916 | 9.47498 | 22464 ft | 339 kts | 328° |
| 2026-05-03 22:30 | 43.94957 | 9.45893 | 22122 ft | 336 kts | 328° |
| 2026-05-03 22:30 | 43.96963 | 9.44314 | 21781 ft | 334 kts | 328° |
| 2026-05-03 22:31 | 43.99059 | 9.42931 | 21422 ft | 334 kts | 339° |
| 2026-05-03 22:31 | 44.01308 | 9.42050 | 21036 ft | 335 kts | 344° |
| 2026-05-03 22:31 | 44.03575 | 9.41307 | 20683 ft | 334 kts | 345° |
| 2026-05-03 22:31 | 44.05835 | 9.40591 | 20330 ft | 332 kts | 345° |
| 2026-05-03 22:32 | 44.08087 | 9.39876 | 20003 ft | 331 kts | 345° |
| 2026-05-03 22:32 | 44.10330 | 9.39157 | 19669 ft | 329 kts | 345° |
| 2026-05-03 22:32 | 44.12558 | 9.38434 | 19334 ft | 328 kts | 345° |
| 2026-05-03 22:32 | 44.14782 | 9.37707 | 19005 ft | 327 kts | 345° |
| 2026-05-03 22:33 | 44.17002 | 9.36976 | 18675 ft | 326 kts | 345° |
| 2026-05-03 22:33 | 44.19187 | 9.36254 | 18315 ft | 326 kts | 345° |
| 2026-05-03 22:33 | 44.21390 | 9.35524 | 17951 ft | 325 kts | 345° |
| 2026-05-03 22:33 | 44.23590 | 9.34793 | 17602 ft | 323 kts | 345° |
| 2026-05-03 22:34 | 44.25776 | 9.34067 | 17258 ft | 321 kts | 345° |
| 2026-05-03 22:34 | 44.27945 | 9.33345 | 16922 ft | 320 kts | 345° |
| 2026-05-03 22:34 | 44.30109 | 9.32624 | 16598 ft | 318 kts | 345° |
| 2026-05-03 22:34 | 44.32255 | 9.31908 | 16274 ft | 317 kts | 345° |
| 2026-05-03 22:35 | 44.34396 | 9.31194 | 15954 ft | 315 kts | 345° |
| 2026-05-03 22:35 | 44.36505 | 9.30490 | 15631 ft | 314 kts | 345° |
| 2026-05-03 22:35 | 44.38627 | 9.29780 | 15315 ft | 313 kts | 345° |
| 2026-05-03 22:35 | 44.40743 | 9.29072 | 14988 ft | 313 kts | 345° |
| 2026-05-03 22:36 | 44.42856 | 9.28365 | 14674 ft | 312 kts | 345° |
| 2026-05-03 22:36 | 44.44973 | 9.27656 | 14338 ft | 312 kts | 345° |
| 2026-05-03 22:36 | 44.47085 | 9.26948 | 14012 ft | 312 kts | 346° |
| 2026-05-03 22:36 | 44.49202 | 9.26237 | 13636 ft | 312 kts | 346° |
| 2026-05-03 22:37 | 44.51313 | 9.25529 | 13293 ft | 311 kts | 345° |
| 2026-05-03 22:37 | 44.53418 | 9.24822 | 12970 ft | 309 kts | 346° |
| 2026-05-03 22:37 | 44.55510 | 9.24118 | 12630 ft | 308 kts | 346° |
| 2026-05-03 22:37 | 44.57585 | 9.23420 | 12318 ft | 307 kts | 346° |
| 2026-05-03 22:38 | 44.59662 | 9.22721 | 11989 ft | 306 kts | 346° |
| 2026-05-03 22:38 | 44.61729 | 9.22024 | 11677 ft | 305 kts | 346° |
| 2026-05-03 22:38 | 44.63789 | 9.21330 | 11337 ft | 304 kts | 346° |
| 2026-05-03 22:38 | 44.65840 | 9.20637 | 11049 ft | 303 kts | 346° |
| 2026-05-03 22:39 | 44.67863 | 9.19954 | 10727 ft | 303 kts | 346° |
| 2026-05-03 22:39 | 44.69915 | 9.19261 | 10419 ft | 302 kts | 346° |
| 2026-05-03 22:39 | 44.71946 | 9.18573 | 10232 ft | 297 kts | 346° |
| 2026-05-03 22:39 | 44.73937 | 9.17900 | 10017 ft | 293 kts | 346° |
| 2026-05-03 22:40 | 44.75907 | 9.17159 | 9635 ft | 293 kts | 337° |
| 2026-05-03 22:40 | 44.77660 | 9.15722 | 9302 ft | 290 kts | 324° |
| 2026-05-03 22:40 | 44.79287 | 9.14080 | 9159 ft | 284 kts | 323° |
| 2026-05-03 22:40 | 44.80871 | 9.12454 | 9035 ft | 280 kts | 323° |
| 2026-05-03 22:41 | 44.82488 | 9.10796 | 8480 ft | 289 kts | 323° |
| 2026-05-03 22:41 | 44.84124 | 9.09132 | 8091 ft | 289 kts | 323° |
| 2026-05-03 22:41 | 44.85726 | 9.07512 | 7784 ft | 284 kts | 323° |
| 2026-05-03 22:41 | 44.87326 | 9.05898 | 7490 ft | 281 kts | 323° |
| 2026-05-03 22:42 | 44.88907 | 9.04307 | 7190 ft | 275 kts | 323° |
| 2026-05-03 22:42 | 44.90457 | 9.02749 | 6909 ft | 271 kts | 323° |
| 2026-05-03 22:42 | 44.91987 | 9.01211 | 6637 ft | 270 kts | 323° |
| 2026-05-03 22:42 | 44.93514 | 8.99675 | 6352 ft | 269 kts | 323° |
| 2026-05-03 22:43 | 44.95041 | 8.98139 | 5980 ft | 270 kts | 323° |
| 2026-05-03 22:43 | 44.96574 | 8.96595 | 5659 ft | 270 kts | 323° |
| 2026-05-03 22:43 | 44.98096 | 8.95064 | 5446 ft | 266 kts | 323° |
| 2026-05-03 22:43 | 44.99583 | 8.93567 | 5314 ft | 258 kts | 323° |
| 2026-05-03 22:44 | 45.01011 | 8.92128 | 5194 ft | 251 kts | 323° |
| 2026-05-03 22:44 | 45.02415 | 8.90713 | 5081 ft | 244 kts | 323° |
| 2026-05-03 22:44 | 45.03786 | 8.89341 | 4964 ft | 237 kts | 326° |
| 2026-05-03 22:44 | 45.05294 | 8.88541 | 4905 ft | 229 kts | 349° |
| 2026-05-03 22:45 | 45.06854 | 8.88157 | 4880 ft | 227 kts | 349° |
| 2026-05-03 22:45 | 45.08416 | 8.87747 | 4840 ft | 229 kts | 348° |
| 2026-05-03 22:45 | 45.09998 | 8.87324 | 4804 ft | 233 kts | 348° |
| 2026-05-03 22:45 | 45.11599 | 8.86893 | 4755 ft | 234 kts | 348° |
| 2026-05-03 22:46 | 45.13189 | 8.86463 | 4698 ft | 235 kts | 348° |
| 2026-05-03 22:46 | 45.14804 | 8.86026 | 4646 ft | 236 kts | 348° |
| 2026-05-03 22:46 | 45.16421 | 8.85588 | 4595 ft | 237 kts | 348° |
| 2026-05-03 22:46 | 45.18030 | 8.85151 | 4539 ft | 234 kts | 348° |
| 2026-05-03 22:47 | 45.19612 | 8.84721 | 4486 ft | 229 kts | 348° |
| 2026-05-03 22:47 | 45.21177 | 8.84296 | 4442 ft | 228 kts | 348° |
| 2026-05-03 22:47 | 45.22722 | 8.83875 | 4397 ft | 229 kts | 348° |
| 2026-05-03 22:47 | 45.24292 | 8.83447 | 4353 ft | 230 kts | 348° |
| 2026-05-03 22:48 | 45.25867 | 8.83018 | 4302 ft | 231 kts | 348° |
| 2026-05-03 22:48 | 45.26401 | 8.82873 | 4288 ft | 231 kts | 348° |
| 2026-05-03 22:48 | 45.27110 | 8.82680 | 4271 ft | 232 kts | 348° |
| 2026-05-03 22:49 | 45.28683 | 8.82251 | 4213 ft | 228 kts | 348° |
| 2026-05-03 22:49 | 45.30213 | 8.81888 | 4160 ft | 224 kts | 355° |
| 2026-05-03 22:49 | 45.31771 | 8.81722 | 4119 ft | 224 kts | 354° |
| 2026-05-03 22:49 | 45.33326 | 8.81463 | 4077 ft | 225 kts | 351° |
| 2026-05-03 22:50 | 45.34879 | 8.81110 | 4032 ft | 226 kts | 349° |
| 2026-05-03 22:50 | 45.36405 | 8.80703 | 3991 ft | 226 kts | 348° |
| 2026-05-03 22:50 | 45.37917 | 8.80285 | 3906 ft | 216 kts | 348° |
| 2026-05-03 22:50 | 45.39359 | 8.79885 | 3763 ft | 206 kts | 348° |
| 2026-05-03 22:51 | 45.40753 | 8.79499 | 3658 ft | 202 kts | 348° |
| 2026-05-03 22:51 | 45.42130 | 8.79119 | 3554 ft | 200 kts | 348° |
| 2026-05-03 22:51 | 45.43496 | 8.78742 | 3458 ft | 200 kts | 348° |
| 2026-05-03 22:51 | 45.44871 | 8.78362 | 3384 ft | 201 kts | 348° |
| 2026-05-03 22:52 | 45.46237 | 8.77984 | 3282 ft | 202 kts | 348° |
| 2026-05-03 22:52 | 45.47608 | 8.77606 | 3180 ft | 199 kts | 348° |
| 2026-05-03 22:52 | 45.48958 | 8.77233 | 3074 ft | 196 kts | 348° |
| 2026-05-03 22:52 | 45.50284 | 8.76867 | 2953 ft | 191 kts | 348° |
| 2026-05-03 22:53 | 45.51566 | 8.76514 | 2706 ft | 184 kts | 348° |
| 2026-05-03 22:53 | 45.52800 | 8.76173 | 2475 ft | 176 kts | 348° |
| 2026-05-03 22:53 | 45.53963 | 8.75852 | 2281 ft | 163 kts | 348° |
| 2026-05-03 22:53 | 45.55038 | 8.75555 | 2042 ft | 153 kts | 348° |
| 2026-05-03 22:54 | 45.56065 | 8.75271 | 1838 ft | 149 kts | 348° |
| 2026-05-03 22:54 | 45.57088 | 8.74989 | 1679 ft | 150 kts | 348° |
| 2026-05-03 22:54 | 45.58108 | 8.74703 | 1485 ft | 152 kts | 347° |
| 2026-05-03 22:54 | 45.59138 | 8.74411 | 1244 ft | 149 kts | 349° |
| 2026-05-03 22:55 | 45.60137 | 8.74143 | 1038 ft | 144 kts | 348° |
| 2026-05-03 22:55 | 45.61122 | 8.73872 | 872 ft | 144 kts | 349° |
| 2026-05-03 22:55 | 45.62099 | 8.73602 | 745 ft | 139 kts | 349° |
| 2026-05-03 22:55 | 45.62913 | 8.73387 | 734 ft | 82 kts | 351° |
| 2026-05-03 22:56 | 45.63162 | 8.73237 | 735 ft | 23 kts | 312° |
| 2026-05-03 22:56 | 45.63262 | 8.73064 | 735 ft | 22 kts | 305° |
| 2026-05-03 22:56 | 45.63346 | 8.72885 | 735 ft | 18 kts | 304° |
| 2026-05-03 22:56 | 45.63401 | 8.72731 | 735 ft | 17 kts | 280° |
| 2026-05-03 22:57 | 45.63397 | 8.72563 | 735 ft | 17 kts | 260° |
| 2026-05-03 22:57 | 45.63375 | 8.72406 | 734 ft | 16 kts | 259° |
| 2026-05-03 22:57 | 45.63354 | 8.72253 | 738 ft | 15 kts | 259° |
| 2026-05-03 22:57 | 45.63335 | 8.72105 | 738 ft | 15 kts | 259° |
| 2026-05-03 22:58 | 45.63314 | 8.71965 | 736 ft | 12 kts | 253° |
| 2026-05-03 22:58 | 45.63283 | 8.71884 | 735 ft | 9 kts | 218° |
| 2026-05-03 22:58 | 45.63225 | 8.71873 | 735 ft | 10 kts | 173° |
| 2026-05-03 22:58 | 45.63113 | 8.71904 | 735 ft | 19 kts | 168° |
| 2026-05-03 22:59 | 45.62987 | 8.71939 | 735 ft | 18 kts | 169° |
| 2026-05-03 22:59 | 45.62865 | 8.71971 | 735 ft | 18 kts | 169° |
| 2026-05-03 22:59 | 45.62754 | 8.72002 | 736 ft | 13 kts | 168° |
| 2026-05-03 22:59 | 45.62693 | 8.72017 | 736 ft | 5 kts | 183° |
| 2026-05-03 23:00 | 45.62671 | 8.71980 | 735 ft | 6 kts | 249° |
| 2026-05-03 23:00 | 45.62661 | 8.71916 | 735 ft | 9 kts | 259° |
| 2026-05-03 23:00 | 45.62653 | 8.71852 | 735 ft | 11 kts | 259° |
| 2026-05-03 23:00 | 45.62639 | 8.71749 | 735 ft | 10 kts | 259° |
| 2026-05-03 23:01 | 45.62624 | 8.71665 | 734 ft | 6 kts | 231° |
| 2026-05-03 23:01 | 45.62568 | 8.71668 | 735 ft | 3 kts | 169° |
| 2026-05-03 23:01 | 45.62557 | 8.71671 | 734 ft | 2 kts | 169° |
| 2026-05-03 23:01 | 45.62555 | 8.71671 | 735 ft | 0 kts | 169° |